createdAt,value
2022-10-19T00:00:08.755Z,59.67
2022-10-19T00:02:56.432Z,57.27
2022-10-19T00:05:24.128Z,57.99
2022-10-19T00:07:51.891Z,59.79
2022-10-19T00:10:19.651Z,61.05
2022-10-19T00:15:16.190Z,65.10
2022-10-19T00:17:44.500Z,62.94
2022-10-19T00:20:12.641Z,60.73
2022-10-19T00:22:40.507Z,58.01
2022-10-19T00:25:08.592Z,57.89
2022-10-19T00:27:37.347Z,59.56
2022-10-19T00:30:05.812Z,60.72
2022-10-19T00:32:33.919Z,63.64
2022-10-19T00:35:03.654Z,64.97
2022-10-19T00:37:31.482Z,62.30
2022-10-19T00:39:59.315Z,59.90
2022-10-19T00:42:27.101Z,57.11
2022-10-19T00:44:59.690Z,57.33
2022-10-19T00:47:28.092Z,58.97
2022-10-19T00:49:57.262Z,60.75
2022-10-19T00:52:25.559Z,64.81
2022-10-19T00:54:54.169Z,64.29
2022-10-19T00:57:22.985Z,62.09
2022-10-19T00:59:51.387Z,59.66
2022-10-19T01:02:19.108Z,57.10
2022-10-19T01:04:49.230Z,57.66
2022-10-19T01:07:17.266Z,58.54
2022-10-19T01:09:45.201Z,61.27
2022-10-19T01:12:15.833Z,65.89
2022-10-19T01:15:02.712Z,65.35
2022-10-19T01:17:39.513Z,62.61
2022-10-19T01:20:26.020Z,60.25
2022-10-19T01:23:31.811Z,58.67
2022-10-19T01:26:29.967Z,61.12
2022-10-19T01:29:35.243Z,65.41
2022-10-19T01:32:10.072Z,64.72
2022-10-19T01:34:44.725Z,62.25
2022-10-19T01:37:26.605Z,60.61
2022-10-19T01:40:05.086Z,59.84
2022-10-19T01:42:42.339Z,57.84
2022-10-19T01:45:27.345Z,58.69
2022-10-19T01:48:22.465Z,60.51
2022-10-19T01:51:02.581Z,65.79
2022-10-19T01:53:34.651Z,64.66
2022-10-19T01:56:03.342Z,62.59
2022-10-19T01:58:34.167Z,60.81
2022-10-19T02:01:05.381Z,59.87
2022-10-19T02:03:34.707Z,57.61
2022-10-19T02:06:06.854Z,57.30
2022-10-19T02:08:41.644Z,59.16
2022-10-19T02:11:09.554Z,60.18
2022-10-19T02:13:39.217Z,65.29
2022-10-19T02:16:12.054Z,65.35
2022-10-19T02:18:45.166Z,62.72
2022-10-19T02:21:12.964Z,60.64
2022-10-19T02:23:40.775Z,58.32
2022-10-19T02:26:08.783Z,58.38
2022-10-19T02:28:36.709Z,60.29
2022-10-19T02:31:07.078Z,63.51
2022-10-19T02:33:34.885Z,64.72
2022-10-19T02:36:03.922Z,62.17
2022-10-19T02:38:31.889Z,60.10
2022-10-19T02:41:15.966Z,58.05
2022-10-19T02:43:50.547Z,58.20
2022-10-19T02:46:28.128Z,59.82
2022-10-19T02:48:57.225Z,61.33
2022-10-19T02:51:36.616Z,64.97
2022-10-19T02:54:08.376Z,66.09
2022-10-19T02:56:36.138Z,63.02
2022-10-19T02:59:04.195Z,60.99
2022-10-19T03:01:31.991Z,58.14
2022-10-19T03:03:59.777Z,58.41
2022-10-19T03:06:27.610Z,59.96
2022-10-19T03:08:55.411Z,61.39
2022-10-19T03:11:23.122Z,64.61
2022-10-19T03:13:50.844Z,64.82
2022-10-19T03:16:19.017Z,62.26
2022-10-19T03:18:48.739Z,60.16
2022-10-19T03:21:16.799Z,57.78
2022-10-19T03:23:44.502Z,57.52
2022-10-19T03:26:16.329Z,58.97
2022-10-19T03:28:44.220Z,60.79
2022-10-19T03:31:12.094Z,65.60
2022-10-19T03:33:39.959Z,65.44
2022-10-19T03:36:17.828Z,62.36
2022-10-19T03:38:45.725Z,59.53
2022-10-19T03:41:13.535Z,56.47
2022-10-19T03:43:41.334Z,56.77
2022-10-19T03:46:09.429Z,58.63
2022-10-19T03:48:37.270Z,61.26
2022-10-19T03:51:07.742Z,64.31
2022-10-19T03:53:43.096Z,64.11
2022-10-19T03:56:13.501Z,61.50
2022-10-19T03:58:42.415Z,59.54
2022-10-19T04:01:21.438Z,57.06
2022-10-19T04:03:54.479Z,57.80
2022-10-19T04:06:26.062Z,59.27
2022-10-19T04:08:53.890Z,61.82
2022-10-19T04:11:24.739Z,65.15
2022-10-19T04:13:53.510Z,65.38
2022-10-19T04:16:22.483Z,62.24
2022-10-19T04:18:50.715Z,60.09
2022-10-19T04:21:22.916Z,57.18
2022-10-19T04:23:53.620Z,57.45
2022-10-19T04:26:21.433Z,59.27
2022-10-19T04:28:49.775Z,61.61
2022-10-19T04:31:17.580Z,65.25
2022-10-19T04:36:14.167Z,60.68
2022-10-19T04:38:42.018Z,58.52
2022-10-19T04:41:12.651Z,58.73
2022-10-19T04:43:40.975Z,60.23
2022-10-19T04:46:19.298Z,61.84
2022-10-19T04:48:50.346Z,65.54
2022-10-19T04:51:24.537Z,65.68
2022-10-19T04:53:57.006Z,62.56
2022-10-19T04:56:28.173Z,59.89
2022-10-19T04:58:57.514Z,57.64
2022-10-19T05:01:27.428Z,57.96
2022-10-19T05:04:00.637Z,58.87
2022-10-19T05:06:29.867Z,61.34
2022-10-19T05:08:57.702Z,64.91
2022-10-19T05:11:26.095Z,65.46
2022-10-19T05:13:54.189Z,62.38
2022-10-19T05:16:23.926Z,59.56
2022-10-19T05:18:56.153Z,56.52
2022-10-19T05:21:24.399Z,57.21
2022-10-19T05:23:53.612Z,59.52
2022-10-19T05:26:23.654Z,60.43
2022-10-19T05:28:57.060Z,60.97
2022-10-19T05:31:27.276Z,65.07
2022-10-19T05:33:58.595Z,65.51
2022-10-19T05:36:28.920Z,61.98
2022-10-19T05:38:57.716Z,58.44
2022-10-19T05:41:26.427Z,57.35
2022-10-19T05:43:56.422Z,58.30
2022-10-19T05:46:24.826Z,60.15
2022-10-19T05:48:52.750Z,63.37
2022-10-19T05:51:22.308Z,63.77
2022-10-19T05:53:50.172Z,61.53
2022-10-19T05:56:20.505Z,58.34
2022-10-19T05:58:49.147Z,56.65
2022-10-19T06:01:19.085Z,58.52
2022-10-19T06:03:48.105Z,59.91
2022-10-19T06:06:15.867Z,63.17
2022-10-19T06:08:43.802Z,63.78
2022-10-19T06:11:20.368Z,60.99
2022-10-19T06:13:50.505Z,58.01
2022-10-19T06:16:19.631Z,57.34
2022-10-19T06:18:47.425Z,58.60
2022-10-19T06:21:21.231Z,60.93
2022-10-19T06:23:53.484Z,63.62
2022-10-19T06:26:21.157Z,63.84
2022-10-19T06:28:49.972Z,62.20
2022-10-19T06:31:18.399Z,58.88
2022-10-19T06:33:49.192Z,57.58
2022-10-19T06:36:22.725Z,59.02
2022-10-19T06:38:51.413Z,60.59
2022-10-19T06:41:19.520Z,63.87
2022-10-19T06:43:51.446Z,63.94
2022-10-19T06:46:22.034Z,62.20
2022-10-19T06:48:57.577Z,58.79
2022-10-19T06:51:26.902Z,58.47
2022-10-19T06:53:57.026Z,59.29
2022-10-19T06:56:26.653Z,60.49
2022-10-19T06:58:54.729Z,63.81
2022-10-19T07:01:23.377Z,64.71
2022-10-19T07:03:52.410Z,62.51
2022-10-19T07:06:20.805Z,59.85
2022-10-19T07:08:48.751Z,57.07
2022-10-19T07:11:18.960Z,56.35
2022-10-19T07:13:46.891Z,57.71
2022-10-19T07:16:19.779Z,58.83
2022-10-19T07:18:53.085Z,60.77
2022-10-19T07:21:22.593Z,63.89
2022-10-19T07:23:50.942Z,63.71
2022-10-19T07:26:27.357Z,60.43
2022-10-19T07:28:56.865Z,56.71
2022-10-19T07:31:25.701Z,57.46
2022-10-19T07:33:54.982Z,59.86
2022-10-19T07:36:26.414Z,60.24
2022-10-19T07:38:54.519Z,61.36
2022-10-19T07:41:25.206Z,63.83
2022-10-19T07:43:53.525Z,62.65
2022-10-19T07:46:25.257Z,60.40
2022-10-19T07:48:53.550Z,57.46
2022-10-19T07:51:22.673Z,56.58
2022-10-19T07:53:50.632Z,58.95
2022-10-19T07:56:20.860Z,59.23
2022-10-19T07:58:49.972Z,60.30
2022-10-19T08:01:20.198Z,62.93
2022-10-19T08:06:37.457Z,59.26
2022-10-19T08:09:05.805Z,56.57
2022-10-19T08:11:35.428Z,56.24
2022-10-19T08:14:04.057Z,58.83
2022-10-19T08:16:37.448Z,59.48
2022-10-19T08:19:08.062Z,60.44
2022-10-19T08:21:37.092Z,61.59
2022-10-19T08:24:06.057Z,61.74
2022-10-19T08:26:36.085Z,64.68
2022-10-19T08:29:05.861Z,62.48
2022-10-19T08:31:33.712Z,57.39
2022-10-19T08:34:01.535Z,56.07
2022-10-19T08:36:31.356Z,57.18
2022-10-19T08:38:59.173Z,58.24
2022-10-19T08:41:38.023Z,58.88
2022-10-19T08:44:39.880Z,59.12
2022-10-19T08:47:27.592Z,60.96
2022-10-19T08:49:59.123Z,61.43
2022-10-19T08:52:34.272Z,61.10
2022-10-19T08:55:09.041Z,61.46
2022-10-19T08:57:37.318Z,60.25
2022-10-19T09:03:27.105Z,59.89
2022-10-19T09:06:22.589Z,60.03
2022-10-19T09:08:55.429Z,59.67
2022-10-19T09:11:30.850Z,60.16
2022-10-19T09:14:26.141Z,59.92
2022-10-19T09:16:59.230Z,60.08
2022-10-19T09:19:30.131Z,60.84
2022-10-19T09:21:59.270Z,60.76
2022-10-19T09:24:30.417Z,61.27
2022-10-19T09:27:02.038Z,60.84
2022-10-19T09:29:37.187Z,60.92
2022-10-19T09:32:12.468Z,60.83
2022-10-19T09:34:46.826Z,61.86
2022-10-19T09:37:23.250Z,60.96
2022-10-19T09:39:55.191Z,60.37
2022-10-19T09:42:33.022Z,60.30
2022-10-19T09:45:06.786Z,61.00
2022-10-19T09:47:39.569Z,60.51
2022-10-19T09:50:08.914Z,60.74
2022-10-19T09:52:40.655Z,59.94
2022-10-19T09:55:14.628Z,60.31
2022-10-19T09:57:59.514Z,60.18
2022-10-19T10:00:36.738Z,59.39
2022-10-19T10:03:06.222Z,58.54
2022-10-19T10:05:39.096Z,59.12
2022-10-19T10:08:14.789Z,59.05
2022-10-19T10:10:49.091Z,59.14
2022-10-19T10:13:18.794Z,58.68
2022-10-19T10:15:54.792Z,58.54
2022-10-19T10:18:23.896Z,58.73
2022-10-19T10:21:32.184Z,57.54
2022-10-19T10:24:12.048Z,56.99
2022-10-19T10:26:42.589Z,55.48
2022-10-19T10:29:18.061Z,56.03
2022-10-19T10:31:49.051Z,54.80
2022-10-19T10:34:38.573Z,54.98
2022-10-19T10:37:19.498Z,53.52
2022-10-19T10:39:51.971Z,51.94
2022-10-19T10:42:26.487Z,49.83
2022-10-19T10:44:56.309Z,49.01
2022-10-19T10:47:27.068Z,47.41
2022-10-19T10:50:07.070Z,46.87
2022-10-19T10:52:37.081Z,48.62
2022-10-19T10:55:08.566Z,49.72
2022-10-19T10:57:53.915Z,49.98
2022-10-19T11:00:25.122Z,51.18
2022-10-19T11:03:05.393Z,51.51
2022-10-19T11:05:41.116Z,52.35
2022-10-19T11:08:27.605Z,52.67
2022-10-19T11:11:15.009Z,53.34
2022-10-19T11:13:47.791Z,53.67
2022-10-19T11:16:18.296Z,54.51
2022-10-19T11:18:53.832Z,55.43
2022-10-19T11:21:47.103Z,56.10
2022-10-19T11:27:27.712Z,56.97
2022-10-19T11:30:13.571Z,57.51
2022-10-19T11:33:02.048Z,57.60
2022-10-19T11:35:39.323Z,57.72
2022-10-19T11:38:29.758Z,57.96
2022-10-19T11:41:39.280Z,58.49
2022-10-19T11:44:23.644Z,58.74
2022-10-19T11:47:01.031Z,58.64
2022-10-19T11:49:34.762Z,59.29
2022-10-19T11:52:49.712Z,59.63
2022-10-19T11:55:33.574Z,60.37
2022-10-19T11:58:32.347Z,61.52
2022-10-19T12:01:40.925Z,61.74
2022-10-19T12:04:28.690Z,66.26
2022-10-19T12:07:18.120Z,65.80
2022-10-19T12:10:08.439Z,61.41
2022-10-19T12:12:45.190Z,55.48
2022-10-19T12:15:28.203Z,54.04
2022-10-19T12:18:01.808Z,54.20
2022-10-19T12:20:50.324Z,54.96
2022-10-19T12:23:27.044Z,55.76
2022-10-19T12:25:56.647Z,56.64
2022-10-19T12:28:55.735Z,56.65
2022-10-19T12:31:31.974Z,56.70
2022-10-19T12:34:09.996Z,57.32
2022-10-19T12:36:45.694Z,58.29
2022-10-19T12:39:21.490Z,58.47
2022-10-19T12:42:18.766Z,59.05
2022-10-19T12:45:06.879Z,59.43
2022-10-19T12:47:34.976Z,59.80
2022-10-19T12:50:03.554Z,60.13
2022-10-19T12:52:36.524Z,60.40
2022-10-19T12:55:16.836Z,60.73
2022-10-19T12:57:48.311Z,60.50
2022-10-19T13:00:25.226Z,61.00
2022-10-19T13:03:00.056Z,61.09
2022-10-19T13:05:29.761Z,61.39
2022-10-19T13:07:58.355Z,61.96
2022-10-19T13:10:28.243Z,62.07
2022-10-19T13:12:56.226Z,64.30
2022-10-19T13:15:36.577Z,64.42
2022-10-19T13:18:16.902Z,58.11
2022-10-19T13:20:52.637Z,56.70
2022-10-19T13:23:26.568Z,57.38
2022-10-19T13:26:32.985Z,57.97
2022-10-19T13:29:01.354Z,59.07
2022-10-19T13:31:31.081Z,59.14
2022-10-19T13:33:59.108Z,59.61
2022-10-19T13:36:27.319Z,59.72
2022-10-19T13:39:03.037Z,59.66
2022-10-19T13:41:37.133Z,60.31
2022-10-19T13:44:18.262Z,59.69
2022-10-19T13:47:08.739Z,59.53
2022-10-19T13:50:04.434Z,59.79
2022-10-19T13:52:42.625Z,59.72
2022-10-19T13:55:47.239Z,59.56
2022-10-19T13:58:46.417Z,59.18
2022-10-19T14:01:55.407Z,59.21
2022-10-19T14:04:40.899Z,59.06
2022-10-19T14:07:25.191Z,58.18
2022-10-19T14:10:08.346Z,57.89
2022-10-19T14:12:40.861Z,55.83
2022-10-19T14:15:27.416Z,54.43
2022-10-19T14:17:57.766Z,50.82
2022-10-19T14:20:56.184Z,48.04
2022-10-19T14:23:32.621Z,47.82
2022-10-19T14:26:15.366Z,45.75
2022-10-19T14:28:43.492Z,46.63
2022-10-19T14:31:19.193Z,43.95
2022-10-19T14:33:48.684Z,44.12
2022-10-19T14:36:22.383Z,44.04
2022-10-19T14:38:55.089Z,44.84
2022-10-19T14:41:28.900Z,45.56
2022-10-19T14:44:10.006Z,43.11
2022-10-19T14:46:50.086Z,43.43
2022-10-19T14:49:21.354Z,43.91
2022-10-19T14:51:52.177Z,42.79
2022-10-19T14:54:25.661Z,42.31
2022-10-19T14:56:56.479Z,43.38
2022-10-19T14:59:35.797Z,43.54
2022-10-19T15:02:37.518Z,44.68
2022-10-19T15:05:07.112Z,45.91
2022-10-19T15:07:40.495Z,47.25
2022-10-19T15:10:18.741Z,48.00
2022-10-19T15:12:46.678Z,48.25
2022-10-19T15:15:37.441Z,48.49
2022-10-19T15:18:06.591Z,49.05
2022-10-19T15:20:49.227Z,50.11
2022-10-19T15:23:39.075Z,50.71
2022-10-19T15:26:37.120Z,51.75
2022-10-19T15:29:20.817Z,52.42
2022-10-19T15:32:21.945Z,53.51
2022-10-19T15:34:49.830Z,54.43
2022-10-19T15:37:23.090Z,55.66
2022-10-19T15:39:52.012Z,56.39
2022-10-19T15:42:52.278Z,56.76
2022-10-19T15:45:37.618Z,57.79
2022-10-19T15:48:24.710Z,58.39
2022-10-19T15:50:55.770Z,59.08
2022-10-19T15:53:26.971Z,59.92
2022-10-19T15:55:55.452Z,59.82
2022-10-19T15:58:26.663Z,61.55
2022-10-19T16:04:28.495Z,65.23
2022-10-19T16:07:11.609Z,61.23
2022-10-19T16:09:57.343Z,54.79
2022-10-19T16:12:44.503Z,54.01
2022-10-19T16:15:14.076Z,55.24
2022-10-19T16:17:57.440Z,56.70
2022-10-19T16:20:37.655Z,57.98
2022-10-19T16:23:23.048Z,58.36
2022-10-19T16:25:57.303Z,59.38
2022-10-19T16:28:59.646Z,60.10
2022-10-19T16:31:56.981Z,61.65
2022-10-19T16:34:26.472Z,67.17
2022-10-19T16:37:04.258Z,64.27
2022-10-19T16:39:34.947Z,60.53
2022-10-19T16:42:34.044Z,56.48
2022-10-19T16:45:16.938Z,55.29
2022-10-19T16:48:09.932Z,55.87
2022-10-19T16:50:41.232Z,57.39
2022-10-19T16:53:20.742Z,58.17
2022-10-19T16:55:52.049Z,58.44
2022-10-19T16:58:37.268Z,59.34
2022-10-19T17:01:19.077Z,60.15
2022-10-19T17:05:07.874Z,60.51
2022-10-19T17:08:36.753Z,60.92
2022-10-19T17:12:03.946Z,68.69
2022-10-19T17:15:40.831Z,64.78
2022-10-19T17:18:35.872Z,55.88
2022-10-19T17:24:53.605Z,55.34
2022-10-19T17:27:39.573Z,56.03
2022-10-19T17:31:21.686Z,57.09
2022-10-19T17:34:03.408Z,57.99
2022-10-19T17:39:53.363Z,59.60
2022-10-19T17:42:49.321Z,60.22
2022-10-19T17:45:35.643Z,60.47
2022-10-19T17:48:17.160Z,61.13
2022-10-19T17:54:21.638Z,61.49
2022-10-19T17:56:54.512Z,65.88
2022-10-19T17:59:46.678Z,65.19
2022-10-19T18:02:31.803Z,60.42
2022-10-19T18:05:07.051Z,54.61
2022-10-19T18:07:46.683Z,53.48
2022-10-19T18:10:16.341Z,54.59
2022-10-19T18:13:00.225Z,55.57
2022-10-19T18:15:35.543Z,56.42
2022-10-19T18:18:41.137Z,57.07
2022-10-19T18:21:24.014Z,58.01
2022-10-19T18:24:27.344Z,59.00
2022-10-19T18:26:55.224Z,59.27
2022-10-19T18:30:01.408Z,60.10
2022-10-19T18:32:25.177Z,60.38
2022-10-19T18:35:01.374Z,60.98
2022-10-19T18:37:42.189Z,61.45
2022-10-19T18:40:11.934Z,65.66
2022-10-19T18:42:55.968Z,65.41
2022-10-19T18:46:01.276Z,58.86
2022-10-19T18:48:42.057Z,53.86
2022-10-19T18:57:09.358Z,56.21
2022-10-19T19:01:05.303Z,57.39
2022-10-19T19:11:59.667Z,60.12
2022-10-19T19:14:32.529Z,61.11
2022-10-19T19:22:51.099Z,68.68
2022-10-19T19:24:49.077Z,61.75
2022-10-19T19:25:08.305Z,60.12
2022-10-19T19:27:42.062Z,54.83
2022-10-19T19:30:51.363Z,54.21
2022-10-19T19:33:23.793Z,55.53
2022-10-19T19:36:18.548Z,56.60
2022-10-19T19:38:51.518Z,57.35
2022-10-19T19:41:19.945Z,58.49
2022-10-19T19:43:47.976Z,59.27
2022-10-19T19:46:17.941Z,59.64
2022-10-19T19:48:47.992Z,60.09
2022-10-19T19:51:18.616Z,60.54
2022-10-19T19:53:47.666Z,61.05
2022-10-19T19:56:22.164Z,61.64
2022-10-19T19:58:54.588Z,66.56
2022-10-19T20:01:22.695Z,65.56
2022-10-19T20:03:52.995Z,59.88
2022-10-19T20:06:26.147Z,54.62
2022-10-19T20:08:57.482Z,54.39
2022-10-19T20:11:41.238Z,55.63
2022-10-19T20:14:16.749Z,56.94
2022-10-19T20:16:44.686Z,57.83
2022-10-19T20:19:38.346Z,58.60
2022-10-19T20:22:07.363Z,58.97
2022-10-19T20:24:36.945Z,59.77
2022-10-19T20:27:43.794Z,60.21
2022-10-19T20:30:11.897Z,60.54
2022-10-19T20:36:12.355Z,61.45
2022-10-19T20:38:40.833Z,66.80
2022-10-19T20:41:10.472Z,64.27
2022-10-19T20:43:39.020Z,57.26
2022-10-19T20:46:25.011Z,55.28
2022-10-19T20:49:02.093Z,56.06
2022-10-19T20:51:32.854Z,57.34
2022-10-19T20:54:02.728Z,58.51
2022-10-19T20:56:34.468Z,59.20
2022-10-19T20:59:05.155Z,59.58
2022-10-19T21:01:35.701Z,60.15
2022-10-19T21:04:05.159Z,60.51
2022-10-19T21:07:32.054Z,60.98
2022-10-19T21:10:03.019Z,60.95
2022-10-19T21:12:30.737Z,61.82
2022-10-19T21:14:58.547Z,65.81
2022-10-19T21:17:29.129Z,64.60
2022-10-19T21:22:46.197Z,54.69
2022-10-19T21:25:13.939Z,55.42
2022-10-19T21:27:41.709Z,56.29
2022-10-19T21:30:10.114Z,57.03
2022-10-19T21:32:37.874Z,57.88
2022-10-19T21:35:05.970Z,58.55
2022-10-19T21:37:36.340Z,59.00
2022-10-19T21:40:04.451Z,59.62
2022-10-19T21:42:32.159Z,60.02
2022-10-19T21:45:11.822Z,60.27
2022-10-19T21:47:48.899Z,61.94
2022-10-19T21:50:17.481Z,67.41
2022-10-19T21:52:45.338Z,65.01
2022-10-19T21:55:13.130Z,57.03
2022-10-19T21:57:40.920Z,55.27
2022-10-19T22:00:09.292Z,56.76
2022-10-19T22:02:40.666Z,59.05
2022-10-19T22:05:08.592Z,60.64
2022-10-19T22:07:36.699Z,60.63
2022-10-19T22:10:05.151Z,61.57
2022-10-19T22:12:33.149Z,61.86
2022-10-19T22:15:01.052Z,66.75
2022-10-19T22:17:28.799Z,64.97
2022-10-19T22:19:56.549Z,59.56
2022-10-19T22:22:24.306Z,53.83
2022-10-19T22:24:52.053Z,53.55
2022-10-19T22:27:19.813Z,54.38
2022-10-19T22:29:47.620Z,55.65
2022-10-19T22:32:15.362Z,56.31
2022-10-19T22:34:43.071Z,57.45
2022-10-19T22:37:10.795Z,58.36
2022-10-19T22:39:38.709Z,59.33
2022-10-19T22:42:06.480Z,59.88
2022-10-19T22:44:34.265Z,60.34
2022-10-19T22:47:02.047Z,60.87
2022-10-19T22:49:29.831Z,65.33
2022-10-19T22:51:57.553Z,65.33
2022-10-19T22:54:25.826Z,59.48
2022-10-19T22:56:53.674Z,53.72
2022-10-19T22:59:21.491Z,53.27
2022-10-19T23:01:49.276Z,54.09
2022-10-19T23:04:17.047Z,55.10
2022-10-19T23:06:44.795Z,56.03
2022-10-19T23:09:12.676Z,56.48
2022-10-19T23:11:40.380Z,57.19
2022-10-19T23:14:09.360Z,57.75
2022-10-19T23:16:37.128Z,58.54
2022-10-19T23:19:04.845Z,59.28
2022-10-19T23:21:32.648Z,59.67
2022-10-19T23:24:00.656Z,59.84
2022-10-19T23:26:28.440Z,60.16
2022-10-19T23:28:56.154Z,60.92
2022-10-19T23:31:26.416Z,61.05
2022-10-19T23:33:54.452Z,61.69
2022-10-19T23:36:24.452Z,66.19
2022-10-19T23:38:53.499Z,65.77
2022-10-19T23:41:21.915Z,58.85
2022-10-19T23:43:49.865Z,52.97
2022-10-19T23:46:17.644Z,52.74
2022-10-19T23:48:45.418Z,54.06
2022-10-19T23:51:16.236Z,55.44
2022-10-19T23:53:45.577Z,56.11
2022-10-19T23:56:16.031Z,57.11
2022-10-19T23:58:44.387Z,57.43
